sensor_id;sensor_type;location;lat;lon;timestamp;P1;durP1;ratioP1;P2;durP2;ratioP2
60999;SDS011;46879;45.658;11.814;2024-02-15T00:02:05;12.93;;;6.13;;
60999;SDS011;46879;45.658;11.814;2024-02-15T00:07:05;10.35;;;5.63;;
60999;SDS011;46879;45.658;11.814;2024-02-15T00:12:06;9.88;;;5.75;;
60999;SDS011;46879;45.658;11.814;2024-02-15T00:17:07;10.70;;;5.53;;
60999;SDS011;46879;45.658;11.814;2024-02-15T00:22:08;16.02;;;6.68;;
60999;SDS011;46879;45.658;11.814;2024-02-15T00:27:09;11.18;;;6.10;;
60999;SDS011;46879;45.658;11.814;2024-02-15T00:32:11;10.65;;;5.35;;
60999;SDS011;46879;45.658;11.814;2024-02-15T00:37:11;10.75;;;4.97;;
60999;SDS011;46879;45.658;11.814;2024-02-15T00:42:12;10.85;;;5.80;;
60999;SDS011;46879;45.658;11.814;2024-02-15T00:47:12;9.20;;;5.15;;
60999;SDS011;46879;45.658;11.814;2024-02-15T00:52:13;10.07;;;5.43;;
60999;SDS011;46879;45.658;11.814;2024-02-15T00:57:14;10.40;;;5.78;;
60999;SDS011;46879;45.658;11.814;2024-02-15T01:02:14;13.10;;;5.50;;
60999;SDS011;46879;45.658;11.814;2024-02-15T01:07:15;10.65;;;5.55;;
60999;SDS011;46879;45.658;11.814;2024-02-15T01:12:15;12.75;;;5.85;;
60999;SDS011;46879;45.658;11.814;2024-02-15T01:17:16;11.25;;;5.22;;
60999;SDS011;46879;45.658;11.814;2024-02-15T01:22:17;9.23;;;5.45;;
60999;SDS011;46879;45.658;11.814;2024-02-15T01:27:17;9.35;;;5.50;;
60999;SDS011;46879;45.658;11.814;2024-02-15T01:32:18;7.85;;;5.38;;
60999;SDS011;46879;45.658;11.814;2024-02-15T01:37:20;10.35;;;5.35;;
60999;SDS011;46879;45.658;11.814;2024-02-15T01:42:21;7.78;;;4.85;;
60999;SDS011;46879;45.658;11.814;2024-02-15T01:47:21;15.88;;;5.70;;
60999;SDS011;46879;45.658;11.814;2024-02-15T01:52:22;7.32;;;4.80;;
60999;SDS011;46879;45.658;11.814;2024-02-15T01:57:23;7.57;;;4.88;;
60999;SDS011;46879;45.658;11.814;2024-02-15T02:02:24;10.23;;;5.05;;
60999;SDS011;46879;45.658;11.814;2024-02-15T02:07:28;9.88;;;5.18;;
60999;SDS011;46879;45.658;11.814;2024-02-15T02:12:30;8.25;;;5.55;;
60999;SDS011;46879;45.658;11.814;2024-02-15T02:17:31;8.50;;;5.60;;
60999;SDS011;46879;45.658;11.814;2024-02-15T02:22:31;8.75;;;4.78;;
60999;SDS011;46879;45.658;11.814;2024-02-15T02:27:32;6.05;;;4.70;;
60999;SDS011;46879;45.658;11.814;2024-02-15T02:32:33;7.60;;;4.70;;
60999;SDS011;46879;45.658;11.814;2024-02-15T02:37:36;7.15;;;4.85;;
60999;SDS011;46879;45.658;11.814;2024-02-15T02:42:50;7.50;;;5.15;;
60999;SDS011;46879;45.658;11.814;2024-02-15T02:47:53;6.65;;;4.30;;
60999;SDS011;46879;45.658;11.814;2024-02-15T02:52:54;8.40;;;4.97;;
60999;SDS011;46879;45.658;11.814;2024-02-15T02:57:55;10.25;;;5.18;;
60999;SDS011;46879;45.658;11.814;2024-02-15T03:02:55;8.00;;;5.05;;
60999;SDS011;46879;45.658;11.814;2024-02-15T03:07:56;6.45;;;4.53;;
60999;SDS011;46879;45.658;11.814;2024-02-15T03:12:57;6.57;;;4.75;;
60999;SDS011;46879;45.658;11.814;2024-02-15T03:17:57;7.55;;;4.68;;
60999;SDS011;46879;45.658;11.814;2024-02-15T03:22:59;7.15;;;4.50;;
60999;SDS011;46879;45.658;11.814;2024-02-15T03:28:00;7.63;;;4.28;;
60999;SDS011;46879;45.658;11.814;2024-02-15T03:33:04;6.22;;;4.40;;
60999;SDS011;46879;45.658;11.814;2024-02-15T03:38:05;6.95;;;4.82;;
60999;SDS011;46879;45.658;11.814;2024-02-15T03:43:07;4.70;;;4.20;;
60999;SDS011;46879;45.658;11.814;2024-02-15T03:48:08;10.20;;;4.53;;
60999;SDS011;46879;45.658;11.814;2024-02-15T03:53:09;7.18;;;4.78;;
60999;SDS011;46879;45.658;11.814;2024-02-15T03:58:13;5.75;;;4.25;;
60999;SDS011;46879;45.658;11.814;2024-02-15T04:03:14;6.47;;;4.38;;
60999;SDS011;46879;45.658;11.814;2024-02-15T04:08:15;7.88;;;4.68;;
60999;SDS011;46879;45.658;11.814;2024-02-15T04:13:17;5.25;;;4.00;;
60999;SDS011;46879;45.658;11.814;2024-02-15T04:18:17;7.25;;;4.53;;
60999;SDS011;46879;45.658;11.814;2024-02-15T04:23:18;6.00;;;4.25;;
60999;SDS011;46879;45.658;11.814;2024-02-15T04:28:19;7.20;;;4.50;;
60999;SDS011;46879;45.658;11.814;2024-02-15T04:33:20;7.32;;;4.55;;
60999;SDS011;46879;45.658;11.814;2024-02-15T04:38:20;8.18;;;4.32;;
60999;SDS011;46879;45.658;11.814;2024-02-15T04:43:21;6.32;;;4.60;;
60999;SDS011;46879;45.658;11.814;2024-02-15T04:48:22;5.05;;;3.97;;
60999;SDS011;46879;45.658;11.814;2024-02-15T04:53:24;5.85;;;4.30;;
60999;SDS011;46879;45.658;11.814;2024-02-15T04:58:25;5.03;;;3.92;;
60999;SDS011;46879;45.658;11.814;2024-02-15T05:03:26;5.45;;;4.07;;
60999;SDS011;46879;45.658;11.814;2024-02-15T05:08:27;6.00;;;4.18;;
60999;SDS011;46879;45.658;11.814;2024-02-15T05:13:32;4.82;;;3.92;;
60999;SDS011;46879;45.658;11.814;2024-02-15T05:18:33;10.93;;;4.15;;
60999;SDS011;46879;45.658;11.814;2024-02-15T05:23:35;7.15;;;3.85;;
60999;SDS011;46879;45.658;11.814;2024-02-15T05:28:36;9.75;;;4.40;;
60999;SDS011;46879;45.658;11.814;2024-02-15T05:33:40;4.70;;;3.85;;
60999;SDS011;46879;45.658;11.814;2024-02-15T05:38:44;4.35;;;3.53;;
60999;SDS011;46879;45.658;11.814;2024-02-15T05:43:45;5.53;;;4.13;;
60999;SDS011;46879;45.658;11.814;2024-02-15T05:48:46;5.68;;;3.92;;
60999;SDS011;46879;45.658;11.814;2024-02-15T05:53:47;5.63;;;3.92;;
60999;SDS011;46879;45.658;11.814;2024-02-15T05:58:49;5.97;;;4.18;;
60999;SDS011;46879;45.658;11.814;2024-02-15T06:03:50;5.00;;;4.03;;
60999;SDS011;46879;45.658;11.814;2024-02-15T06:08:54;8.63;;;4.30;;
60999;SDS011;46879;45.658;11.814;2024-02-15T06:13:59;7.65;;;4.15;;
60999;SDS011;46879;45.658;11.814;2024-02-15T06:19:00;5.45;;;4.30;;
60999;SDS011;46879;45.658;11.814;2024-02-15T06:24:00;9.80;;;4.28;;
60999;SDS011;46879;45.658;11.814;2024-02-15T06:29:01;6.22;;;3.78;;
60999;SDS011;46879;45.658;11.814;2024-02-15T06:34:20;13.02;;;3.85;;
60999;SDS011;46879;45.658;11.814;2024-02-15T06:39:39;13.35;;;4.63;;
60999;SDS011;46879;45.658;11.814;2024-02-15T06:44:46;14.75;;;4.70;;
60999;SDS011;46879;45.658;11.814;2024-02-15T06:49:48;34.28;;;5.95;;
60999;SDS011;46879;45.658;11.814;2024-02-15T06:54:51;7.30;;;5.30;;
60999;SDS011;46879;45.658;11.814;2024-02-15T06:59:53;7.78;;;5.47;;
60999;SDS011;46879;45.658;11.814;2024-02-15T07:04:53;21.63;;;6.32;;
60999;SDS011;46879;45.658;11.814;2024-02-15T07:09:54;9.82;;;5.78;;
60999;SDS011;46879;45.658;11.814;2024-02-15T07:14:55;19.73;;;6.93;;
60999;SDS011;46879;45.658;11.814;2024-02-15T07:19:56;19.80;;;7.22;;
60999;SDS011;46879;45.658;11.814;2024-02-15T07:24:57;18.20;;;6.88;;
60999;SDS011;46879;45.658;11.814;2024-02-15T07:29:57;11.90;;;6.65;;
60999;SDS011;46879;45.658;11.814;2024-02-15T07:34:58;19.20;;;6.88;;
60999;SDS011;46879;45.658;11.814;2024-02-15T07:39:59;21.00;;;6.78;;
60999;SDS011;46879;45.658;11.814;2024-02-15T07:45:00;17.75;;;7.05;;
60999;SDS011;46879;45.658;11.814;2024-02-15T07:50:01;15.48;;;7.07;;
60999;SDS011;46879;45.658;11.814;2024-02-15T07:55:03;15.50;;;6.95;;
60999;SDS011;46879;45.658;11.814;2024-02-15T08:00:08;16.08;;;6.72;;
60999;SDS011;46879;45.658;11.814;2024-02-15T08:05:11;16.65;;;7.75;;
60999;SDS011;46879;45.658;11.814;2024-02-15T08:10:14;11.45;;;6.90;;
60999;SDS011;46879;45.658;11.814;2024-02-15T08:15:14;11.13;;;6.80;;
60999;SDS011;46879;45.658;11.814;2024-02-15T08:20:15;16.67;;;7.03;;
60999;SDS011;46879;45.658;11.814;2024-02-15T08:25:22;13.00;;;6.57;;
60999;SDS011;46879;45.658;11.814;2024-02-15T08:30:23;24.70;;;6.60;;
60999;SDS011;46879;45.658;11.814;2024-02-15T08:35:23;33.03;;;6.75;;
60999;SDS011;46879;45.658;11.814;2024-02-15T08:40:24;13.45;;;6.43;;
60999;SDS011;46879;45.658;11.814;2024-02-15T08:45:25;16.92;;;6.85;;
60999;SDS011;46879;45.658;11.814;2024-02-15T08:50:25;13.85;;;7.07;;
60999;SDS011;46879;45.658;11.814;2024-02-15T08:55:27;13.15;;;6.95;;
60999;SDS011;46879;45.658;11.814;2024-02-15T09:00:28;11.52;;;6.32;;
60999;SDS011;46879;45.658;11.814;2024-02-15T09:05:29;13.35;;;6.32;;
60999;SDS011;46879;45.658;11.814;2024-02-15T09:10:29;12.13;;;6.28;;
60999;SDS011;46879;45.658;11.814;2024-02-15T09:15:30;12.55;;;6.43;;
60999;SDS011;46879;45.658;11.814;2024-02-15T09:20:31;6.95;;;5.85;;
60999;SDS011;46879;45.658;11.814;2024-02-15T09:25:33;19.98;;;6.07;;
60999;SDS011;46879;45.658;11.814;2024-02-15T09:30:34;11.48;;;6.38;;
60999;SDS011;46879;45.658;11.814;2024-02-15T09:35:35;11.73;;;6.50;;
60999;SDS011;46879;45.658;11.814;2024-02-15T09:40:36;12.02;;;6.38;;
60999;SDS011;46879;45.658;11.814;2024-02-15T09:45:36;13.20;;;6.65;;
60999;SDS011;46879;45.658;11.814;2024-02-15T09:50:38;8.50;;;5.80;;
60999;SDS011;46879;45.658;11.814;2024-02-15T09:55:42;10.38;;;6.38;;
60999;SDS011;46879;45.658;11.814;2024-02-15T10:00:43;14.63;;;6.40;;
60999;SDS011;46879;45.658;11.814;2024-02-15T10:05:47;15.00;;;6.25;;
60999;SDS011;46879;45.658;11.814;2024-02-15T10:11:04;10.90;;;5.60;;
60999;SDS011;46879;45.658;11.814;2024-02-15T10:16:15;10.45;;;6.18;;
60999;SDS011;46879;45.658;11.814;2024-02-15T10:21:27;9.00;;;5.65;;
60999;SDS011;46879;45.658;11.814;2024-02-15T10:26:30;11.23;;;6.07;;
60999;SDS011;46879;45.658;11.814;2024-02-15T10:31:32;8.32;;;6.25;;
60999;SDS011;46879;45.658;11.814;2024-02-15T10:36:33;7.20;;;5.40;;
60999;SDS011;46879;45.658;11.814;2024-02-15T10:41:34;8.20;;;5.97;;
60999;SDS011;46879;45.658;11.814;2024-02-15T10:46:36;10.50;;;5.63;;
60999;SDS011;46879;45.658;11.814;2024-02-15T10:51:36;10.25;;;6.65;;
60999;SDS011;46879;45.658;11.814;2024-02-15T10:56:43;12.18;;;6.25;;
60999;SDS011;46879;45.658;11.814;2024-02-15T11:01:46;8.23;;;5.60;;
60999;SDS011;46879;45.658;11.814;2024-02-15T11:06:50;8.00;;;5.50;;
60999;SDS011;46879;45.658;11.814;2024-02-15T11:11:54;9.48;;;5.80;;
60999;SDS011;46879;45.658;11.814;2024-02-15T11:16:56;8.80;;;5.65;;
60999;SDS011;46879;45.658;11.814;2024-02-15T11:21:58;6.63;;;5.07;;
60999;SDS011;46879;45.658;11.814;2024-02-15T11:27:03;8.55;;;5.68;;
60999;SDS011;46879;45.658;11.814;2024-02-15T11:32:06;7.85;;;5.63;;
60999;SDS011;46879;45.658;11.814;2024-02-15T11:37:08;8.65;;;5.20;;
60999;SDS011;46879;45.658;11.814;2024-02-15T11:42:24;8.55;;;5.18;;
60999;SDS011;46879;45.658;11.814;2024-02-15T11:47:28;8.48;;;5.90;;
60999;SDS011;46879;45.658;11.814;2024-02-15T11:52:30;11.85;;;5.47;;
60999;SDS011;46879;45.658;11.814;2024-02-15T11:57:31;13.13;;;5.75;;
60999;SDS011;46879;45.658;11.814;2024-02-15T12:02:39;9.60;;;5.80;;
60999;SDS011;46879;45.658;11.814;2024-02-15T12:07:58;9.10;;;5.45;;
60999;SDS011;46879;45.658;11.814;2024-02-15T12:13:18;6.72;;;5.40;;
60999;SDS011;46879;45.658;11.814;2024-02-15T12:18:37;10.60;;;5.05;;
60999;SDS011;46879;45.658;11.814;2024-02-15T12:23:44;6.65;;;5.18;;
60999;SDS011;46879;45.658;11.814;2024-02-15T12:28:50;7.60;;;4.97;;
60999;SDS011;46879;45.658;11.814;2024-02-15T12:34:01;8.90;;;4.95;;
60999;SDS011;46879;45.658;11.814;2024-02-15T12:39:09;10.80;;;5.20;;
60999;SDS011;46879;45.658;11.814;2024-02-15T12:44:17;7.95;;;5.95;;
60999;SDS011;46879;45.658;11.814;2024-02-15T12:54:24;8.38;;;5.60;;
60999;SDS011;46879;45.658;11.814;2024-02-15T12:59:25;7.97;;;5.38;;
60999;SDS011;46879;45.658;11.814;2024-02-15T13:04:25;5.75;;;4.88;;
60999;SDS011;46879;45.658;11.814;2024-02-15T13:09:26;6.70;;;5.75;;
60999;SDS011;46879;45.658;11.814;2024-02-15T13:14:27;6.60;;;5.00;;
60999;SDS011;46879;45.658;11.814;2024-02-15T13:19:29;6.20;;;5.20;;
60999;SDS011;46879;45.658;11.814;2024-02-15T13:24:30;8.70;;;5.38;;
60999;SDS011;46879;45.658;11.814;2024-02-15T13:29:30;9.18;;;5.53;;
60999;SDS011;46879;45.658;11.814;2024-02-15T13:34:32;5.95;;;4.75;;
60999;SDS011;46879;45.658;11.814;2024-02-15T13:39:33;9.68;;;5.38;;
60999;SDS011;46879;45.658;11.814;2024-02-15T13:44:34;7.18;;;4.82;;
60999;SDS011;46879;45.658;11.814;2024-02-15T13:49:34;7.57;;;4.93;;
60999;SDS011;46879;45.658;11.814;2024-02-15T13:54:35;7.13;;;5.00;;
60999;SDS011;46879;45.658;11.814;2024-02-15T13:59:35;8.25;;;5.10;;
60999;SDS011;46879;45.658;11.814;2024-02-15T14:04:36;10.30;;;5.25;;
60999;SDS011;46879;45.658;11.814;2024-02-15T14:09:36;6.82;;;5.13;;
60999;SDS011;46879;45.658;11.814;2024-02-15T14:14:39;5.60;;;4.55;;
60999;SDS011;46879;45.658;11.814;2024-02-15T14:19:40;8.73;;;5.20;;
60999;SDS011;46879;45.658;11.814;2024-02-15T14:24:41;5.63;;;4.40;;
60999;SDS011;46879;45.658;11.814;2024-02-15T14:29:44;10.70;;;5.32;;
60999;SDS011;46879;45.658;11.814;2024-02-15T14:35:04;7.47;;;4.60;;
60999;SDS011;46879;45.658;11.814;2024-02-15T14:40:06;7.90;;;4.95;;
60999;SDS011;46879;45.658;11.814;2024-02-15T14:45:09;7.88;;;5.28;;
60999;SDS011;46879;45.658;11.814;2024-02-15T14:50:11;9.00;;;5.60;;
60999;SDS011;46879;45.658;11.814;2024-02-15T14:55:13;8.98;;;5.78;;
60999;SDS011;46879;45.658;11.814;2024-02-15T15:00:14;8.93;;;5.88;;
60999;SDS011;46879;45.658;11.814;2024-02-15T15:05:17;22.30;;;6.72;;
60999;SDS011;46879;45.658;11.814;2024-02-15T15:10:36;41.90;;;8.45;;
60999;SDS011;46879;45.658;11.814;2024-02-15T15:15:55;22.33;;;6.88;;
60999;SDS011;46879;45.658;11.814;2024-02-15T15:20:57;22.70;;;6.85;;
60999;SDS011;46879;45.658;11.814;2024-02-15T15:25:59;31.33;;;6.75;;
60999;SDS011;46879;45.658;11.814;2024-02-15T15:31:00;20.58;;;6.05;;
60999;SDS011;46879;45.658;11.814;2024-02-15T15:36:00;21.73;;;6.90;;
60999;SDS011;46879;45.658;11.814;2024-02-15T15:41:01;20.88;;;6.00;;
60999;SDS011;46879;45.658;11.814;2024-02-15T15:46:03;27.58;;;6.47;;
60999;SDS011;46879;45.658;11.814;2024-02-15T15:51:04;13.55;;;6.15;;
60999;SDS011;46879;45.658;11.814;2024-02-15T15:56:06;12.43;;;5.95;;
60999;SDS011;46879;45.658;11.814;2024-02-15T16:01:09;11.68;;;6.18;;
60999;SDS011;46879;45.658;11.814;2024-02-15T16:06:13;16.58;;;6.45;;
60999;SDS011;46879;45.658;11.814;2024-02-15T16:11:14;16.58;;;5.78;;
60999;SDS011;46879;45.658;11.814;2024-02-15T16:16:16;14.15;;;6.07;;
60999;SDS011;46879;45.658;11.814;2024-02-15T16:21:17;12.30;;;5.78;;
60999;SDS011;46879;45.658;11.814;2024-02-15T16:26:18;14.23;;;5.25;;
60999;SDS011;46879;45.658;11.814;2024-02-15T16:31:21;10.43;;;6.47;;
60999;SDS011;46879;45.658;11.814;2024-02-15T16:36:22;12.07;;;6.85;;
60999;SDS011;46879;45.658;11.814;2024-02-15T16:41:22;10.25;;;6.40;;
60999;SDS011;46879;45.658;11.814;2024-02-15T16:46:25;13.25;;;6.28;;
60999;SDS011;46879;45.658;11.814;2024-02-15T16:51:26;9.32;;;5.95;;
60999;SDS011;46879;45.658;11.814;2024-02-15T16:56:26;10.95;;;6.60;;
60999;SDS011;46879;45.658;11.814;2024-02-15T17:01:30;11.73;;;6.22;;
60999;SDS011;46879;45.658;11.814;2024-02-15T17:06:31;12.48;;;5.78;;
60999;SDS011;46879;45.658;11.814;2024-02-15T17:11:31;11.23;;;6.10;;
60999;SDS011;46879;45.658;11.814;2024-02-15T17:16:35;11.98;;;5.30;;
60999;SDS011;46879;45.658;11.814;2024-02-15T17:21:43;9.65;;;5.80;;
60999;SDS011;46879;45.658;11.814;2024-02-15T17:26:44;13.60;;;5.88;;
60999;SDS011;46879;45.658;11.814;2024-02-15T17:31:48;10.80;;;5.30;;
60999;SDS011;46879;45.658;11.814;2024-02-15T17:36:50;10.45;;;5.90;;
60999;SDS011;46879;45.658;11.814;2024-02-15T17:41:51;10.27;;;5.40;;
60999;SDS011;46879;45.658;11.814;2024-02-15T17:46:53;7.13;;;5.03;;
60999;SDS011;46879;45.658;11.814;2024-02-15T17:51:54;8.88;;;5.18;;
60999;SDS011;46879;45.658;11.814;2024-02-15T17:56:55;7.75;;;4.97;;
60999;SDS011;46879;45.658;11.814;2024-02-15T18:01:56;7.90;;;4.68;;
60999;SDS011;46879;45.658;11.814;2024-02-15T18:06:57;7.55;;;5.20;;
60999;SDS011;46879;45.658;11.814;2024-02-15T18:11:57;6.32;;;4.72;;
60999;SDS011;46879;45.658;11.814;2024-02-15T18:16:58;7.53;;;4.80;;
60999;SDS011;46879;45.658;11.814;2024-02-15T18:21:58;8.18;;;4.90;;
60999;SDS011;46879;45.658;11.814;2024-02-15T18:27:00;7.20;;;4.95;;
60999;SDS011;46879;45.658;11.814;2024-02-15T18:32:01;8.43;;;5.10;;
60999;SDS011;46879;45.658;11.814;2024-02-15T18:37:02;5.20;;;4.70;;
60999;SDS011;46879;45.658;11.814;2024-02-15T18:42:02;7.70;;;4.07;;
60999;SDS011;46879;45.658;11.814;2024-02-15T18:47:05;7.00;;;5.20;;
60999;SDS011;46879;45.658;11.814;2024-02-15T18:52:06;5.20;;;4.00;;
60999;SDS011;46879;45.658;11.814;2024-02-15T18:57:06;7.22;;;4.65;;
60999;SDS011;46879;45.658;11.814;2024-02-15T19:02:09;6.43;;;4.53;;
60999;SDS011;46879;45.658;11.814;2024-02-15T19:07:12;7.72;;;4.68;;
60999;SDS011;46879;45.658;11.814;2024-02-15T19:12:13;6.03;;;4.38;;
60999;SDS011;46879;45.658;11.814;2024-02-15T19:17:13;10.80;;;4.70;;
60999;SDS011;46879;45.658;11.814;2024-02-15T19:22:14;9.75;;;4.45;;
60999;SDS011;46879;45.658;11.814;2024-02-15T19:27:14;5.35;;;4.55;;
60999;SDS011;46879;45.658;11.814;2024-02-15T19:32:15;7.05;;;4.45;;
60999;SDS011;46879;45.658;11.814;2024-02-15T19:37:17;6.13;;;4.43;;
60999;SDS011;46879;45.658;11.814;2024-02-15T19:42:18;5.72;;;4.55;;
60999;SDS011;46879;45.658;11.814;2024-02-15T19:47:18;12.13;;;4.55;;
60999;SDS011;46879;45.658;11.814;2024-02-15T19:52:20;5.65;;;4.68;;
60999;SDS011;46879;45.658;11.814;2024-02-15T19:57:22;8.07;;;4.80;;
60999;SDS011;46879;45.658;11.814;2024-02-15T20:02:22;7.63;;;4.50;;
60999;SDS011;46879;45.658;11.814;2024-02-15T20:07:23;4.97;;;4.10;;
60999;SDS011;46879;45.658;11.814;2024-02-15T20:12:28;7.15;;;4.68;;
60999;SDS011;46879;45.658;11.814;2024-02-15T20:17:29;8.38;;;5.18;;
60999;SDS011;46879;45.658;11.814;2024-02-15T20:22:30;8.15;;;4.55;;
60999;SDS011;46879;45.658;11.814;2024-02-15T20:27:30;8.80;;;5.10;;
60999;SDS011;46879;45.658;11.814;2024-02-15T20:32:32;7.65;;;4.55;;
60999;SDS011;46879;45.658;11.814;2024-02-15T20:37:33;7.35;;;4.70;;
60999;SDS011;46879;45.658;11.814;2024-02-15T20:42:34;8.73;;;5.10;;
60999;SDS011;46879;45.658;11.814;2024-02-15T20:47:37;7.13;;;4.47;;
60999;SDS011;46879;45.658;11.814;2024-02-15T20:52:38;10.60;;;4.78;;
60999;SDS011;46879;45.658;11.814;2024-02-15T20:57:39;8.30;;;5.38;;
60999;SDS011;46879;45.658;11.814;2024-02-15T21:02:40;8.35;;;4.63;;
60999;SDS011;46879;45.658;11.814;2024-02-15T21:07:41;7.07;;;4.53;;
60999;SDS011;46879;45.658;11.814;2024-02-15T21:12:42;7.35;;;4.50;;
60999;SDS011;46879;45.658;11.814;2024-02-15T21:17:43;6.45;;;4.60;;
60999;SDS011;46879;45.658;11.814;2024-02-15T21:22:45;7.00;;;4.85;;
60999;SDS011;46879;45.658;11.814;2024-02-15T21:27:57;5.75;;;4.03;;
60999;SDS011;46879;45.658;11.814;2024-02-15T21:32:58;7.63;;;4.95;;
60999;SDS011;46879;45.658;11.814;2024-02-15T21:37:59;9.45;;;4.60;;
60999;SDS011;46879;45.658;11.814;2024-02-15T21:42:59;6.85;;;4.47;;
60999;SDS011;46879;45.658;11.814;2024-02-15T21:48:00;10.90;;;5.28;;
60999;SDS011;46879;45.658;11.814;2024-02-15T21:53:01;8.57;;;4.97;;
60999;SDS011;46879;45.658;11.814;2024-02-15T21:58:01;6.63;;;4.82;;
60999;SDS011;46879;45.658;11.814;2024-02-15T22:03:03;7.43;;;5.32;;
60999;SDS011;46879;45.658;11.814;2024-02-15T22:08:05;6.25;;;4.80;;
60999;SDS011;46879;45.658;11.814;2024-02-15T22:13:07;7.72;;;5.18;;
60999;SDS011;46879;45.658;11.814;2024-02-15T22:18:08;8.20;;;5.50;;
60999;SDS011;46879;45.658;11.814;2024-02-15T22:23:12;7.80;;;5.57;;
60999;SDS011;46879;45.658;11.814;2024-02-15T22:28:13;11.38;;;5.53;;
60999;SDS011;46879;45.658;11.814;2024-02-15T22:33:16;8.13;;;5.15;;
60999;SDS011;46879;45.658;11.814;2024-02-15T22:38:16;7.45;;;5.05;;
60999;SDS011;46879;45.658;11.814;2024-02-15T22:43:18;11.23;;;5.32;;
60999;SDS011;46879;45.658;11.814;2024-02-15T22:48:19;8.25;;;5.90;;
60999;SDS011;46879;45.658;11.814;2024-02-15T22:53:20;8.95;;;5.03;;
60999;SDS011;46879;45.658;11.814;2024-02-15T22:58:21;11.32;;;5.13;;
60999;SDS011;46879;45.658;11.814;2024-02-15T23:03:22;7.75;;;5.13;;
60999;SDS011;46879;45.658;11.814;2024-02-15T23:08:23;7.35;;;4.88;;
60999;SDS011;46879;45.658;11.814;2024-02-15T23:13:23;6.40;;;5.10;;
60999;SDS011;46879;45.658;11.814;2024-02-15T23:18:24;7.75;;;5.90;;
60999;SDS011;46879;45.658;11.814;2024-02-15T23:23:26;8.10;;;5.25;;
60999;SDS011;46879;45.658;11.814;2024-02-15T23:28:27;8.80;;;5.70;;
60999;SDS011;46879;45.658;11.814;2024-02-15T23:33:27;12.18;;;5.68;;
60999;SDS011;46879;45.658;11.814;2024-02-15T23:38:28;9.15;;;5.20;;
60999;SDS011;46879;45.658;11.814;2024-02-15T23:43:47;8.85;;;5.22;;
60999;SDS011;46879;45.658;11.814;2024-02-15T23:48:48;7.18;;;5.18;;
60999;SDS011;46879;45.658;11.814;2024-02-15T23:53:49;13.52;;;6.00;;
60999;SDS011;46879;45.658;11.814;2024-02-15T23:58:49;7.45;;;5.30;;
